Time;durP1;ratioP1;P1;durP2;ratioP2;P2;SDS_P1;SDS_P2;PMS_P1;PMS_P2;Temp;Humidity;BMP_temperature;BMP_pressure;BME280_temperature;BME280_humidity;BME280_pressure;Samples;Min_cycle;Max_cycle;Signal;HPM_P1;HPM_P2
2022/07/09 00:00:43;;;;;;;13.77;6.47;;;20.20;66.30;;;;;;5034305;28;20021;-15
2022/07/09 00:03:09;;;;;;;11.98;6.00;;;20.10;66.80;;;;;;5034458;28;20091;-15
2022/07/09 00:05:35;;;;;;;10.10;5.32;;;20.00;67.10;;;;;;5033898;28;20492;-15
2022/07/09 00:08:01;;;;;;;9.95;5.10;;;20.00;66.90;;;;;;5034235;28;20029;-15
2022/07/09 00:10:27;;;;;;;8.48;4.75;;;19.90;67.30;;;;;;5033704;28;20140;-15
2022/07/09 00:12:53;;;;;;;7.50;4.43;;;19.90;67.20;;;;;;5033872;28;20040;-15
2022/07/09 00:15:19;;;;;;;5.55;3.80;;;19.90;67.40;;;;;;5033691;28;20025;-15
2022/07/09 00:17:45;;;;;;;8.43;5.20;;;19.80;67.50;;;;;;5033744;28;20036;-15
2022/07/09 00:20:11;;;;;;;9.13;5.03;;;19.80;67.70;;;;;;5033649;28;20022;-13
2022/07/09 00:22:37;;;;;;;8.73;4.57;;;19.70;68.30;;;;;;5033467;28;20028;-15
2022/07/09 00:25:04;;;;;;;8.95;4.18;;;19.60;68.70;;;;;;5015813;28;20025;-14
2022/07/09 00:27:30;;;;;;;5.13;3.67;;;19.60;68.50;;;;;;5033583;28;20017;-15
2022/07/09 00:29:56;;;;;;;6.75;3.60;;;19.60;68.60;;;;;;5033818;28;20124;-15
2022/07/09 00:32:21;;;;;;;6.55;3.53;;;19.50;68.70;;;;;;5033225;28;20460;-14
2022/07/09 00:34:47;;;;;;;6.63;3.83;;;19.60;68.70;;;;;;5033435;28;20023;-14
2022/07/09 00:37:13;;;;;;;7.07;5.10;;;19.50;69.00;;;;;;5033484;28;20056;-15
2022/07/09 00:39:39;;;;;;;7.88;4.07;;;19.50;68.70;;;;;;5033570;28;20117;-14
2022/07/09 00:42:06;;;;;;;7.10;4.20;;;19.50;69.10;;;;;;5032965;28;20400;-14
2022/07/09 00:44:33;;;;;;;6.32;3.88;;;19.50;69.00;;;;;;5033713;28;20037;-13
2022/07/09 00:46:59;;;;;;;7.97;4.22;;;19.40;68.90;;;;;;5033734;28;20029;-13
2022/07/09 00:49:29;;;;;;;6.38;3.85;;;19.40;68.90;;;;;;5033618;28;20026;-15
2022/07/09 00:51:56;;;;;;;6.65;4.53;;;19.40;69.10;;;;;;5033284;28;20022;-15
2022/07/09 00:54:24;;;;;;;5.57;4.32;;;19.40;69.20;;;;;;5032976;28;20033;-15
2022/07/09 00:56:54;;;;;;;8.07;4.50;;;19.30;69.20;;;;;;5033489;28;20030;-15
2022/07/09 00:59:22;;;;;;;7.20;4.93;;;19.30;69.80;;;;;;5033451;28;20489;-15
2022/07/09 01:01:51;;;;;;;7.22;4.88;;;19.20;70.50;;;;;;5033584;28;20021;-15
2022/07/09 01:04:18;;;;;;;7.15;4.68;;;19.20;70.30;;;;;;5033122;28;20473;-14
2022/07/09 01:06:45;;;;;;;6.18;4.45;;;19.10;70.90;;;;;;5033373;28;20049;-13
2022/07/09 01:09:11;;;;;;;6.80;3.63;;;19.00;71.50;;;;;;5033406;28;20029;-14
2022/07/09 01:11:37;;;;;;;4.28;3.83;;;19.00;71.30;;;;;;5033374;28;20116;-14
2022/07/09 01:14:03;;;;;;;8.20;3.58;;;19.00;70.80;;;;;;5033156;28;20169;-14
2022/07/09 01:16:34;;;;;;;4.18;3.20;;;19.00;70.80;;;;;;5032713;28;20025;-16
2022/07/09 01:19:01;;;;;;;5.63;3.40;;;19.00;70.40;;;;;;5032948;28;20100;-15
2022/07/09 01:21:27;;;;;;;4.25;2.97;;;19.00;70.60;;;;;;5032939;28;20501;-14
2022/07/09 01:23:53;;;;;;;3.53;2.92;;;19.00;69.70;;;;;;5032828;28;20040;-15
2022/07/09 01:26:19;;;;;;;3.05;2.78;;;18.90;69.60;;;;;;5032980;28;20026;-14
2022/07/09 01:28:46;;;;;;;3.97;2.90;;;18.90;69.00;;;;;;5032866;28;20531;-14
2022/07/09 01:31:13;;;;;;;2.95;2.60;;;18.90;68.90;;;;;;5031598;28;20412;-15
2022/07/09 01:33:39;;;;;;;5.13;2.60;;;18.90;68.70;;;;;;5033131;28;20049;-14
2022/07/09 01:36:08;;;;;;;5.72;2.80;;;18.90;68.60;;;;;;5032965;28;20396;-15
2022/07/09 01:38:35;;;;;;;3.08;2.72;;;18.90;68.30;;;;;;5032616;28;20033;-15
2022/07/09 01:41:01;;;;;;;3.33;2.30;;;18.90;68.10;;;;;;5032777;28;20029;-13
2022/07/09 01:43:27;;;;;;;2.85;2.53;;;18.90;68.00;;;;;;5032739;28;20029;-14
2022/07/09 01:45:53;;;;;;;3.13;2.53;;;18.80;67.70;;;;;;5032290;28;20091;-15
2022/07/09 01:48:18;;;;;;;3.47;2.58;;;18.80;67.90;;;;;;5032561;28;20373;-15
2022/07/09 01:50:44;;;;;;;4.20;2.28;;;18.80;67.80;;;;;;5033195;28;20543;-14
2022/07/09 01:53:10;;;;;;;3.30;2.40;;;18.80;67.60;;;;;;5034549;28;20485;-15
2022/07/09 01:55:36;;;;;;;6.63;2.30;;;18.80;67.60;;;;;;5036409;28;20044;-14
2022/07/09 01:58:02;;;;;;;3.25;2.28;;;18.80;67.20;;;;;;5036689;28;20083;-15
2022/07/09 02:00:29;;;;;;;3.85;2.00;;;18.80;66.90;;;;;;5036026;28;20084;-14
2022/07/09 02:02:56;;;;;;;3.22;2.50;;;18.80;66.50;;;;;;5036283;28;20025;-17
2022/07/09 02:05:22;;;;;;;4.25;2.10;;;18.80;66.10;;;;;;5036505;28;20057;-15
2022/07/09 02:07:49;;;;;;;4.93;2.35;;;18.80;66.00;;;;;;5036535;28;20481;-15
2022/07/09 02:10:15;;;;;;;2.28;1.90;;;18.80;66.00;;;;;;5036046;28;20477;-15
2022/07/09 02:12:42;;;;;;;3.50;2.05;;;18.80;65.90;;;;;;5036042;28;20531;-14
2022/07/09 02:15:10;;;;;;;3.97;2.40;;;18.80;65.70;;;;;;5036682;28;20013;-14
2022/07/09 02:17:36;;;;;;;4.60;2.30;;;18.80;65.40;;;;;;5035922;28;20029;-14
2022/07/09 02:20:04;;;;;;;2.30;2.10;;;18.80;65.20;;;;;;5035986;28;20053;-14
2022/07/09 02:22:31;;;;;;;2.78;2.20;;;18.70;65.20;;;;;;5035687;28;20544;-14
2022/07/09 02:24:57;;;;;;;2.25;1.88;;;18.70;65.20;;;;;;5036123;28;20041;-14
2022/07/09 02:27:23;;;;;;;4.13;2.63;;;18.60;65.20;;;;;;5036058;28;20389;-16
2022/07/09 02:29:49;;;;;;;3.15;1.95;;;18.60;65.30;;;;;;5036059;28;20025;-16
2022/07/09 02:32:15;;;;;;;3.05;2.10;;;18.60;65.40;;;;;;5034132;28;20037;-15
2022/07/09 02:34:41;;;;;;;3.88;2.15;;;18.50;65.40;;;;;;5036010;28;20021;-15
2022/07/09 02:37:08;;;;;;;3.22;2.50;;;18.50;65.60;;;;;;5035654;28;20511;-15
2022/07/09 02:39:34;;;;;;;4.65;2.78;;;18.40;65.90;;;;;;5035923;28;20021;-15
2022/07/09 02:42:00;;;;;;;5.13;2.50;;;18.40;66.80;;;;;;5035500;28;20116;-15
2022/07/09 02:44:26;;;;;;;3.53;2.25;;;18.40;66.50;;;;;;5035218;28;20108;-15
2022/07/09 02:46:52;;;;;;;4.15;2.80;;;18.30;66.50;;;;;;5035504;28;20099;-15
2022/07/09 02:49:18;;;;;;;3.72;2.67;;;18.20;67.30;;;;;;5035437;28;20030;-15
2022/07/09 02:51:44;;;;;;;5.30;3.20;;;18.20;67.60;;;;;;5035543;28;20032;-15
2022/07/09 02:54:10;;;;;;;4.28;2.75;;;18.20;67.90;;;;;;5035457;28;20031;-16
2022/07/09 02:56:36;;;;;;;4.32;2.80;;;18.10;67.50;;;;;;5035151;28;20053;-14
2022/07/09 02:59:05;;;;;;;3.13;2.35;;;18.10;67.10;;;;;;5035711;28;20428;-15
2022/07/09 03:01:31;;;;;;;7.55;2.80;;;18.00;67.10;;;;;;5035461;28;20025;-16
2022/07/09 03:03:57;;;;;;;5.53;2.88;;;18.00;67.40;;;;;;5034883;28;20542;-16
2022/07/09 03:06:23;;;;;;;4.97;2.90;;;18.00;67.40;;;;;;5035012;28;20029;-14
2022/07/09 03:08:49;;;;;;;5.30;3.05;;;18.00;67.30;;;;;;5035059;28;20500;-15
2022/07/09 03:11:14;;;;;;;4.32;2.38;;;18.00;67.30;;;;;;5033770;28;20022;-14
2022/07/09 03:13:40;;;;;;;6.20;2.90;;;17.90;67.40;;;;;;5035261;28;20496;-15
2022/07/09 03:16:07;;;;;;;5.15;2.70;;;17.90;68.40;;;;;;5034944;28;20032;-16
2022/07/09 03:18:33;;;;;;;4.78;2.40;;;18.00;67.50;;;;;;5034986;28;20032;-15
2022/07/09 03:21:00;;;;;;;4.28;2.63;;;18.00;67.70;;;;;;5035159;28;20026;-15
2022/07/09 03:23:26;;;;;;;4.70;2.67;;;17.90;67.50;;;;;;5034821;28;20032;-15
2022/07/09 03:25:52;;;;;;;5.18;2.30;;;17.90;67.30;;;;;;5034621;28;20025;-14
2022/07/09 03:28:18;;;;;;;5.45;2.50;;;18.00;67.20;;;;;;5034710;28;20025;-14
2022/07/09 03:30:44;;;;;;;2.50;2.22;;;18.00;67.10;;;;;;5034868;28;20071;-14
2022/07/09 03:33:10;;;;;;;5.25;2.63;;;18.00;66.80;;;;;;5035416;28;20465;-16
2022/07/09 03:35:36;;;;;;;2.80;2.20;;;18.00;66.80;;;;;;5034908;28;20025;-15
2022/07/09 03:38:02;;;;;;;3.25;2.42;;;18.10;66.70;;;;;;5034860;28;20017;-16
2022/07/09 03:40:29;;;;;;;3.97;2.15;;;18.10;66.40;;;;;;5034861;28;20460;-14
2022/07/09 03:42:55;;;;;;;4.97;2.30;;;18.10;66.40;;;;;;5034782;28;20029;-14
2022/07/09 03:45:21;;;;;;;4.97;2.42;;;18.10;66.30;;;;;;5034228;28;20045;-14
2022/07/09 03:47:48;;;;;;;6.10;2.53;;;18.20;66.20;;;;;;5034194;28;20362;-14
2022/07/09 03:50:14;;;;;;;2.95;2.28;;;18.10;66.20;;;;;;5034063;28;20496;-17
2022/07/09 03:52:40;;;;;;;5.03;2.20;;;18.20;65.80;;;;;;5034582;28;20017;-15
2022/07/09 03:55:07;;;;;;;6.00;2.33;;;18.20;65.90;;;;;;5034446;28;20491;-15
2022/07/09 03:57:33;;;;;;;3.17;2.25;;;18.20;65.80;;;;;;5034401;28;20114;-15
2022/07/09 03:59:59;;;;;;;4.15;2.47;;;18.20;65.70;;;;;;5034115;28;20021;-15
2022/07/09 04:02:25;;;;;;;2.85;2.42;;;18.20;66.30;;;;;;5033798;28;20493;-15
2022/07/09 04:04:51;;;;;;;4.03;2.30;;;18.20;65.90;;;;;;5033919;28;20068;-15
2022/07/09 04:07:17;;;;;;;2.92;2.53;;;18.30;65.70;;;;;;5034042;28;20385;-16
2022/07/09 04:09:43;;;;;;;5.93;2.70;;;18.30;65.80;;;;;;5034253;28;20017;-15
2022/07/09 04:12:08;;;;;;;4.03;2.20;;;18.30;65.60;;;;;;5034234;28;20025;-15
2022/07/09 04:14:35;;;;;;;7.07;2.60;;;18.40;65.30;;;;;;5033349;28;20494;-15
2022/07/09 04:17:01;;;;;;;2.72;2.40;;;18.40;65.20;;;;;;5033403;28;20025;-16
2022/07/09 04:19:26;;;;;;;4.15;2.30;;;18.40;65.20;;;;;;5033651;28;20028;-14
2022/07/09 04:21:52;;;;;;;5.85;2.53;;;18.40;65.00;;;;;;5033948;28;20025;-15
2022/07/09 04:24:18;;;;;;;2.45;2.00;;;18.40;65.30;;;;;;5033558;28;20017;-16
2022/07/09 04:26:44;;;;;;;3.53;2.20;;;18.40;64.90;;;;;;5033947;28;20532;-16
2022/07/09 04:29:10;;;;;;;4.47;2.30;;;18.40;64.70;;;;;;5033975;28;20100;-16
2022/07/09 04:31:36;;;;;;;4.13;2.30;;;18.50;64.70;;;;;;5033765;28;20025;-15
2022/07/09 04:34:02;;;;;;;5.28;2.40;;;18.60;64.70;;;;;;5033803;28;20604;-15
2022/07/09 04:36:29;;;;;;;5.75;2.80;;;18.70;64.70;;;;;;5033314;28;20033;-16
2022/07/09 04:38:56;;;;;;;3.97;2.20;;;18.80;65.40;;;;;;5033488;28;20397;-15
2022/07/09 04:41:23;;;;;;;4.55;2.58;;;18.90;64.30;;;;;;5033347;28;20533;-15
2022/07/09 04:43:48;;;;;;;6.78;2.83;;;18.90;64.60;;;;;;5033531;28;20040;-15
2022/07/09 04:46:16;;;;;;;5.45;2.60;;;19.10;64.00;;;;;;5033163;28;20421;-16
2022/07/09 04:48:42;;;;;;;4.72;2.15;;;19.20;63.70;;;;;;5033815;28;20028;-15
2022/07/09 04:51:08;;;;;;;6.97;2.55;;;19.30;63.10;;;;;;5033272;28;20484;-15
2022/07/09 04:53:34;;;;;;;3.17;2.42;;;19.40;62.90;;;;;;5033605;28;20075;-14
2022/07/09 04:56:01;;;;;;;5.05;2.50;;;19.50;62.70;;;;;;5033191;28;20372;-15
2022/07/09 04:58:28;;;;;;;2.38;2.10;;;19.60;62.60;;;;;;5032966;28;20043;-15
2022/07/09 05:00:54;;;;;;;3.28;2.13;;;19.70;62.30;;;;;;5033058;28;20032;-14
2022/07/09 05:03:20;;;;;;;5.07;2.25;;;19.90;61.90;;;;;;5033120;28;20022;-14
2022/07/09 05:05:46;;;;;;;3.75;2.28;;;19.90;61.80;;;;;;5033316;28;20029;-14
2022/07/09 05:08:12;;;;;;;4.40;2.20;;;20.00;61.40;;;;;;5032991;28;20499;-16
2022/07/09 05:10:38;;;;;;;4.60;2.10;;;20.10;61.80;;;;;;5033151;28;20021;-15
2022/07/09 05:13:04;;;;;;;2.78;2.20;;;20.20;61.50;;;;;;5033026;28;20109;-15
2022/07/09 05:15:32;;;;;;;2.13;1.90;;;20.40;61.40;;;;;;5033354;28;20029;-14
2022/07/09 05:17:58;;;;;;;4.88;2.20;;;20.50;61.10;;;;;;5033330;28;20033;-17
2022/07/09 05:20:25;;;;;;;3.35;2.28;;;20.50;60.60;;;;;;5033209;28;20523;-14
2022/07/09 05:22:51;;;;;;;1.85;1.70;;;20.50;60.20;;;;;;5032782;28;20025;-17
2022/07/09 05:25:17;;;;;;;3.95;2.10;;;20.50;60.30;;;;;;5032966;28;20029;-14
2022/07/09 05:27:44;;;;;;;2.78;2.10;;;20.50;60.40;;;;;;5035721;28;20072;-14
2022/07/09 05:30:12;;;;;;;7.60;2.60;;;20.50;60.20;;;;;;5035706;28;20021;-14
2022/07/09 05:32:38;;;;;;;4.55;2.10;;;20.50;60.20;;;;;;5036947;28;20034;-14
2022/07/09 05:35:05;;;;;;;8.10;2.40;;;20.60;60.00;;;;;;5036774;28;20044;-14
2022/07/09 05:37:31;;;;;;;2.92;1.70;;;20.70;59.80;;;;;;5037410;28;20022;-17
2022/07/09 05:39:57;;;;;;;5.18;1.95;;;20.80;59.90;;;;;;5036719;28;20116;-14
2022/07/09 05:42:24;;;;;;;3.63;2.08;;;20.90;59.80;;;;;;5036480;28;20371;-16
2022/07/09 05:44:50;;;;;;;2.65;1.83;;;21.10;59.70;;;;;;5036600;28;20040;-14
2022/07/09 05:47:16;;;;;;;5.45;1.90;;;21.20;58.90;;;;;;5036632;28;20067;-14
2022/07/09 05:49:42;;;;;;;3.92;2.15;;;21.40;58.80;;;;;;5036814;28;20429;-16
2022/07/09 05:52:08;;;;;;;2.00;1.70;;;21.50;58.30;;;;;;5036482;28;20568;-14
2022/07/09 05:54:36;;;;;;;3.42;1.95;;;21.60;58.10;;;;;;5036266;28;20035;-16
2022/07/09 05:57:02;;;;;;;3.92;1.90;;;21.80;57.60;;;;;;5036872;28;20021;-16
2022/07/09 05:59:28;;;;;;;7.47;2.40;;;21.90;56.10;;;;;;5035116;28;20037;-14
2022/07/09 06:01:54;;;;;;;4.75;1.90;;;21.90;56.10;;;;;;5036489;28;20029;-15
2022/07/09 06:04:20;;;;;;;4.60;1.83;;;22.00;55.10;;;;;;5035948;28;20028;-14
2022/07/09 06:06:46;;;;;;;4.22;1.83;;;22.20;54.50;;;;;;5036549;28;20025;-15
2022/07/09 06:09:12;;;;;;;3.60;2.08;;;22.30;53.90;;;;;;5036214;28;20462;-15
2022/07/09 06:11:38;;;;;;;3.28;1.70;;;22.50;53.60;;;;;;5036443;28;20392;-14
2022/07/09 06:14:04;;;;;;;3.50;2.03;;;22.60;52.90;;;;;;5036201;28;20399;-15
2022/07/09 06:16:30;;;;;;;4.55;2.20;;;22.80;52.90;;;;;;5035741;28;20493;-16
2022/07/09 06:18:56;;;;;;;3.08;1.75;;;23.00;52.30;;;;;;5035998;28;20025;-15
2022/07/09 06:21:22;;;;;;;3.85;1.65;;;23.20;50.80;;;;;;5035979;28;20025;-15
2022/07/09 06:23:48;;;;;;;1.75;1.65;;;23.40;52.10;;;;;;5036182;28;20101;-16
2022/07/09 06:26:14;;;;;;;3.65;1.90;;;23.60;50.70;;;;;;5034660;28;20060;-14
2022/07/09 06:28:40;;;;;;;5.15;1.85;;;23.80;49.80;;;;;;5035990;28;20044;-14
2022/07/09 06:31:06;;;;;;;3.70;1.80;;;23.80;48.50;;;;;;5035715;28;20030;-16
2022/07/09 06:33:32;;;;;;;3.45;2.00;;;23.90;48.40;;;;;;5036071;28;20036;-16
2022/07/09 06:35:58;;;;;;;3.67;1.80;;;23.90;50.00;;;;;;5035704;28;20033;-15
2022/07/09 06:38:29;;;;;;;3.33;2.10;;;24.00;49.10;;;;;;5034651;28;20499;-14
2022/07/09 06:40:56;;;;;;;4.32;1.85;;;24.00;48.90;;;;;;5035680;28;20392;-14
2022/07/09 06:43:22;;;;;;;6.50;1.67;;;24.10;48.90;;;;;;5035578;28;20025;-14
2022/07/09 06:45:48;;;;;;;4.32;1.77;;;24.20;49.20;;;;;;5035401;28;20080;-13
2022/07/09 06:48:14;;;;;;;4.07;2.10;;;24.30;48.40;;;;;;5034087;28;20053;-17
2022/07/09 06:50:40;;;;;;;2.95;1.80;;;24.40;47.80;;;;;;5035405;28;20029;-14
2022/07/09 06:53:07;;;;;;;2.88;1.60;;;24.40;48.40;;;;;;5035026;28;20032;-15
2022/07/09 06:55:33;;;;;;;6.03;2.15;;;24.40;48.00;;;;;;5035357;28;20116;-14
2022/07/09 06:57:59;;;;;;;3.97;1.80;;;24.60;48.10;;;;;;5035494;28;20057;-15
2022/07/09 07:00:25;;;;;;;4.50;1.75;;;24.80;47.90;;;;;;5035055;28;20381;-14
2022/07/09 07:02:51;;;;;;;2.78;1.80;;;25.00;46.90;;;;;;5035442;28;20495;-14
2022/07/09 07:05:18;;;;;;;4.50;1.80;;;25.20;46.90;;;;;;5035103;28;20397;-13
2022/07/09 07:07:43;;;;;;;1.77;1.55;;;25.20;46.80;;;;;;5035486;28;20040;-13
2022/07/09 07:10:10;;;;;;;2.88;1.70;;;25.40;46.40;;;;;;5035084;28;20029;-14
2022/07/09 07:12:36;;;;;;;3.20;1.65;;;25.40;46.10;;;;;;5035139;28;20053;-14
2022/07/09 07:15:03;;;;;;;3.35;1.90;;;25.50;45.30;;;;;;5035254;28;20473;-14
2022/07/09 07:17:29;;;;;;;1.75;1.40;;;25.50;45.90;;;;;;5035334;28;20036;-13
2022/07/09 07:19:55;;;;;;;4.50;1.40;;;25.60;46.10;;;;;;5034914;28;20103;-13
2022/07/09 07:22:21;;;;;;;4.85;1.80;;;25.80;46.00;;;;;;5034893;28;20065;-14
2022/07/09 07:24:46;;;;;;;3.67;1.60;;;25.90;45.00;;;;;;5035086;28;20045;-13
2022/07/09 07:27:12;;;;;;;4.18;1.80;;;26.00;45.00;;;;;;5034772;28;20108;-13
2022/07/09 07:29:38;;;;;;;4.43;1.50;;;26.20;43.00;;;;;;5034996;28;20025;-13
2022/07/09 07:32:05;;;;;;;2.67;1.58;;;26.20;44.40;;;;;;5034773;28;20477;-13
2022/07/09 07:34:31;;;;;;;5.40;1.60;;;26.30;44.60;;;;;;5034354;28;20021;-15
2022/07/09 07:36:57;;;;;;;5.60;1.90;;;26.40;44.50;;;;;;5034838;28;20033;-15
2022/07/09 07:39:24;;;;;;;3.45;1.42;;;26.70;43.10;;;;;;5034874;28;20017;-15
2022/07/09 07:41:50;;;;;;;3.58;1.50;;;26.80;42.70;;;;;;5034477;28;20033;-14
2022/07/09 07:44:17;;;;;;;5.30;1.50;;;26.90;43.00;;;;;;5034315;28;20060;-14
2022/07/09 07:46:43;;;;;;;6.15;1.55;;;26.90;43.00;;;;;;5034001;28;20053;-13
2022/07/09 07:49:09;;;;;;;3.47;1.40;;;27.00;43.10;;;;;;5034429;28;20025;-14
2022/07/09 07:51:34;;;;;;;4.47;1.92;;;27.10;43.30;;;;;;5034563;28;20061;-13
2022/07/09 07:54:00;;;;;;;4.20;1.65;;;27.20;42.90;;;;;;5034216;28;20022;-14
2022/07/09 07:56:26;;;;;;;3.53;1.88;;;27.40;42.40;;;;;;5034343;28;20026;-15
2022/07/09 07:58:52;;;;;;;3.03;1.65;;;27.60;41.10;;;;;;5034120;28;20028;-13
2022/07/09 08:01:18;;;;;;;6.75;1.73;;;27.70;41.60;;;;;;5033965;28;20040;-13
2022/07/09 08:03:44;;;;;;;3.47;1.48;;;27.70;41.50;;;;;;5032758;28;20496;-13
2022/07/09 08:06:10;;;;;;;6.25;1.70;;;27.80;41.60;;;;;;5034531;28;20496;-16
2022/07/09 08:08:36;;;;;;;2.97;1.63;;;27.90;41.50;;;;;;5033817;28;20026;-16
2022/07/09 08:11:02;;;;;;;4.97;1.77;;;28.00;41.70;;;;;;5034284;28;20030;-13
2022/07/09 08:13:28;;;;;;;2.55;1.33;;;28.20;41.30;;;;;;5033976;28;20027;-14
2022/07/09 08:15:54;;;;;;;2.47;1.50;;;28.30;41.70;;;;;;5034054;28;20021;-14
2022/07/09 08:18:20;;;;;;;3.75;1.80;;;28.50;40.60;;;;;;5033517;28;20021;-14
2022/07/09 08:20:49;;;;;;;3.17;1.60;;;28.60;39.80;;;;;;5034333;28;20052;-14
2022/07/09 08:23:15;;;;;;;4.45;1.63;;;28.80;39.80;;;;;;5034115;28;20026;-14
2022/07/09 08:25:41;;;;;;;3.67;1.67;;;28.90;38.90;;;;;;5033858;28;20033;-14
2022/07/09 08:28:07;;;;;;;4.07;1.70;;;29.20;38.60;;;;;;5033607;28;20022;-14
2022/07/09 08:30:33;;;;;;;7.20;1.50;;;29.50;38.20;;;;;;5032120;28;20561;-14
2022/07/09 08:32:59;;;;;;;4.07;1.85;;;29.60;37.80;;;;;;5032255;28;20026;-14
2022/07/09 08:35:25;;;;;;;2.65;1.58;;;29.60;38.10;;;;;;5032341;28;20026;-14
2022/07/09 08:37:52;;;;;;;5.97;2.13;;;29.40;38.20;;;;;;5033677;28;20017;-14
2022/07/09 08:40:19;;;;;;;1.80;1.35;;;29.30;38.40;;;;;;5033520;28;20075;-14
2022/07/09 08:42:45;;;;;;;11.20;2.47;;;29.40;38.10;;;;;;5033941;28;20520;-13
2022/07/09 08:45:16;;;;;;;3.88;1.52;;;29.50;37.90;;;;;;5033305;28;20081;-14
2022/07/09 08:47:42;;;;;;;3.92;1.35;;;29.70;37.80;;;;;;5033546;28;20396;-15
2022/07/09 08:50:10;;;;;;;3.20;1.65;;;29.90;37.90;;;;;;5033438;28;20017;-15
2022/07/09 08:52:38;;;;;;;3.20;1.50;;;30.00;37.50;;;;;;5033104;28;20508;-15
2022/07/09 08:55:07;;;;;;;3.45;1.58;;;30.20;35.80;;;;;;5033246;28;20014;-14
2022/07/09 08:57:34;;;;;;;3.65;1.40;;;30.60;34.20;;;;;;5033664;28;20067;-14
2022/07/09 09:00:03;;;;;;;1.30;1.20;;;30.80;33.40;;;;;;5033339;28;20053;-14
2022/07/09 09:02:35;;;;;;;2.28;1.45;;;30.90;34.10;;;;;;5032569;28;20056;-14
2022/07/09 09:05:15;;;;;;;3.72;1.30;;;30.90;33.80;;;;;;5033494;28;20026;-14
2022/07/09 09:07:42;;;;;;;3.85;1.40;;;30.90;33.60;;;;;;5033452;28;20032;-14
2022/07/09 09:10:09;;;;;;;2.78;1.35;;;31.00;33.30;;;;;;5033043;28;20030;-14
2022/07/09 09:12:34;;;;;;;2.85;1.25;;;31.00;32.70;;;;;;5033171;28;20040;-14
2022/07/09 09:15:05;;;;;;;3.25;1.67;;;30.80;33.00;;;;;;5033262;28;20025;-14
2022/07/09 09:17:31;;;;;;;2.40;0.98;;;30.80;32.60;;;;;;5032984;28;20025;-14
2022/07/09 09:19:57;;;;;;;2.47;1.55;;;30.80;33.40;;;;;;5033064;28;20037;-14
2022/07/09 09:22:23;;;;;;;4.07;1.30;;;30.90;33.10;;;;;;5032836;28;20033;-14
2022/07/09 09:24:50;;;;;;;1.90;1.10;;;31.10;32.60;;;;;;5033162;28;20025;-14
2022/07/09 09:27:16;;;;;;;3.05;1.33;;;31.30;32.70;;;;;;5032939;28;20025;-14
2022/07/09 09:29:51;;;;;;;2.17;1.40;;;31.60;32.80;;;;;;5031631;28;20029;-14
2022/07/09 09:32:21;;;;;;;1.58;1.25;;;31.90;31.80;;;;;;5032585;28;20026;-14
2022/07/09 09:34:51;;;;;;;1.77;1.08;;;32.30;32.30;;;;;;5033103;28;20034;-14
2022/07/09 09:37:26;;;;;;;2.30;1.40;;;32.60;32.10;;;;;;5032855;28;20489;-14
2022/07/09 09:39:52;;;;;;;3.83;1.40;;;32.90;30.80;;;;;;5033148;28;20420;-14
2022/07/09 09:42:19;;;;;;;3.42;1.30;;;33.00;31.10;;;;;;5032542;28;20037;-13
2022/07/09 09:44:49;;;;;;;2.17;1.23;;;33.30;31.10;;;;;;5032692;28;20030;-14
2022/07/09 09:47:18;;;;;;;2.75;1.50;;;33.20;30.90;;;;;;5033044;28;20066;-15
2022/07/09 09:49:47;;;;;;;2.22;1.30;;;33.30;31.10;;;;;;5032694;28;20432;-15
2022/07/09 09:52:14;;;;;;;3.85;1.50;;;33.50;30.40;;;;;;5031485;28;20033;-14
2022/07/09 09:54:45;;;;;;;3.97;1.40;;;33.50;30.00;;;;;;5032532;28;20487;-14
2022/07/09 09:57:16;;;;;;;3.88;1.25;;;33.50;30.30;;;;;;5033270;28;20108;-14
2022/07/09 09:59:49;;;;;;;3.00;1.40;;;33.50;30.30;;;;;;5032703;28;20032;-14
2022/07/09 10:02:15;;;;;;;2.22;1.20;;;33.60;30.50;;;;;;5032336;28;20108;-14
2022/07/09 10:04:43;;;;;;;2.35;1.23;;;33.90;30.30;;;;;;5032435;28;20176;-14
2022/07/09 10:07:12;;;;;;;8.02;1.40;;;34.00;29.10;;;;;;5033400;28;20026;-14
2022/07/09 10:09:38;;;;;;;2.70;1.42;;;34.20;29.30;;;;;;5032799;28;20513;-14
2022/07/09 10:12:06;;;;;;;2.35;1.50;;;34.40;28.70;;;;;;5032722;28;20026;-14
2022/07/09 10:14:34;;;;;;;3.55;1.42;;;34.40;28.50;;;;;;5034809;28;20515;-14
2022/07/09 10:17:14;;;;;;;3.22;1.52;;;34.40;28.60;;;;;;5036323;28;20112;-14
2022/07/09 10:19:57;;;;;;;4.57;1.98;;;34.30;28.90;;;;;;5036080;28;20033;-14
2022/07/09 10:22:38;;;;;;;2.22;1.45;;;34.40;29.10;;;;;;5036162;28;20028;-14
2022/07/09 10:25:05;;;;;;;4.05;1.60;;;34.50;29.30;;;;;;5035945;28;20529;-14
2022/07/09 10:27:45;;;;;;;4.63;1.50;;;34.40;29.40;;;;;;5036214;28;20017;-14
2022/07/09 10:30:28;;;;;;;3.63;1.52;;;34.60;29.50;;;;;;5036248;28;20086;-14
2022/07/09 10:33:11;;;;;;;2.97;1.38;;;35.00;29.60;;;;;;5035975;28;20496;-14
2022/07/09 10:35:43;;;;;;;3.67;1.73;;;35.30;29.10;;;;;;5036122;28;20036;-14
2022/07/09 10:38:10;;;;;;;;;;;35.60;27.70;;;;;;5036124;28;20021;-14
2022/07/09 10:40:44;;;;;;;2.33;1.50;;;35.30;27.50;;;;;;5035491;28;19912;-14
2022/07/09 10:43:11;;;;;;;2.70;1.58;;;35.40;28.80;;;;;;5035600;28;20032;-14
2022/07/09 10:45:40;;;;;;;3.92;1.48;;;35.70;28.10;;;;;;5035501;28;20041;-13
2022/07/09 10:48:09;;;;;;;1.80;1.30;;;35.80;27.90;;;;;;5035435;28;20074;-13
2022/07/09 10:50:43;;;;;;;2.10;1.40;;;35.70;27.80;;;;;;5035649;28;20014;-14
2022/07/09 10:53:11;;;;;;;2.83;1.40;;;35.50;27.90;;;;;;5036062;28;20112;-15
2022/07/09 10:55:41;;;;;;;2.30;1.40;;;35.70;28.70;;;;;;5035749;28;20033;-14
2022/07/09 10:58:17;;;;;;;2.70;1.20;;;36.00;27.50;;;;;;5035356;28;20021;-14
2022/07/09 11:00:42;;;;;;;4.30;1.52;;;36.40;27.30;;;;;;5036456;28;20030;-14
2022/07/09 11:03:08;;;;;;;3.42;1.35;;;36.70;27.40;;;;;;5035007;28;20109;-16
2022/07/09 11:05:45;;;;;;;1.83;1.10;;;37.10;27.30;;;;;;5035442;28;20032;-14
2022/07/09 11:08:11;;;;;;;2.00;1.13;;;37.50;26.40;;;;;;5035478;28;20026;-14
2022/07/09 11:10:39;;;;;;;2.88;1.40;;;37.70;25.80;;;;;;5035723;28;20053;-14
2022/07/09 11:13:08;;;;;;;3.47;1.38;;;37.80;26.00;;;;;;5035957;28;20061;-14
2022/07/09 11:15:37;;;;;;;4.50;1.45;;;37.90;25.70;;;;;;5034989;28;20412;-14
2022/07/09 11:18:12;;;;;;;2.15;1.40;;;38.10;25.70;;;;;;5034987;28;20108;-15
2022/07/09 11:20:44;;;;;;;3.42;1.50;;;38.20;25.60;;;;;;5034685;28;20122;-14
2022/07/09 11:23:15;;;;;;;3.42;1.30;;;38.00;25.60;;;;;;5035248;28;20021;-15
2022/07/09 11:25:42;;;;;;;3.80;1.40;;;38.20;24.90;;;;;;5034952;28;20109;-16
2022/07/09 11:28:08;;;;;;;2.85;1.33;;;38.40;24.60;;;;;;5035373;28;20084;-14
2022/07/09 11:30:36;;;;;;;2.08;1.27;;;38.30;25.00;;;;;;5034521;28;20097;-15
2022/07/09 11:33:02;;;;;;;3.58;1.40;;;38.20;25.40;;;;;;5034616;28;20083;-15
2022/07/09 11:35:34;;;;;;;1.92;1.10;;;38.40;25.30;;;;;;5034585;28;20026;-14
2022/07/09 11:38:06;;;;;;;1.45;1.17;;;38.60;24.50;;;;;;5034886;28;20025;-15
2022/07/09 11:40:33;;;;;;;1.83;1.15;;;38.90;25.00;;;;;;5034390;28;20108;-15
2022/07/09 11:42:59;;;;;;;2.40;1.40;;;39.10;24.50;;;;;;5034453;28;20045;-15
2022/07/09 11:45:26;;;;;;;1.83;1.30;;;39.50;23.90;;;;;;5034136;28;20053;-15
2022/07/09 11:48:10;;;;;;;1.60;1.15;;;39.60;24.10;;;;;;5034482;28;20033;-15
2022/07/09 11:50:43;;;;;;;1.58;1.23;;;39.80;24.10;;;;;;5034106;28;20108;-15
2022/07/09 11:53:23;;;;;;;2.67;1.50;;;40.00;23.90;;;;;;5034284;28;20112;-15
2022/07/09 11:56:03;;;;;;;2.08;1.40;;;40.00;23.60;;;;;;5034306;28;20021;-15
2022/07/09 11:58:30;;;;;;;1.75;1.30;;;40.00;23.30;;;;;;5034021;28;20050;-15
2022/07/09 12:01:02;;;;;;;2.70;1.45;;;39.90;23.50;;;;;;5034659;28;20028;-14
2022/07/09 12:03:32;;;;;;;1.90;1.20;;;39.60;24.10;;;;;;5034059;28;20035;-13
2022/07/09 12:05:58;;;;;;;1.65;1.30;;;39.50;24.20;;;;;;5034332;28;20096;-14
2022/07/09 12:08:31;;;;;;;2.60;1.15;;;39.80;24.00;;;;;;5034403;28;20026;-14
2022/07/09 12:10:58;;;;;;;4.10;1.65;;;40.00;24.10;;;;;;5033957;28;20032;-14
2022/07/09 12:13:25;;;;;;;2.90;1.50;;;40.20;23.40;;;;;;5033912;28;20034;-14
2022/07/09 12:15:50;;;;;;;3.65;1.60;;;39.50;23.30;;;;;;5034172;28;20023;-14
2022/07/09 12:18:16;;;;;;;3.13;1.40;;;39.20;23.50;;;;;;5033617;28;20385;-14
2022/07/09 12:20:42;;;;;;;4.55;1.50;;;38.70;24.20;;;;;;5033832;28;20033;-14
2022/07/09 12:23:08;;;;;;;2.40;1.48;;;38.40;24.60;;;;;;5034398;28;20025;-14
2022/07/09 12:25:34;;;;;;;3.30;1.38;;;38.00;24.60;;;;;;5033640;28;20033;-14
2022/07/09 12:28:00;;;;;;;2.28;1.48;;;37.30;25.30;;;;;;5033659;28;20039;-14
2022/07/09 12:30:26;;;;;;;1.77;1.05;;;37.00;25.70;;;;;;5033440;28;20108;-14
2022/07/09 12:32:53;;;;;;;3.58;1.17;;;37.00;25.90;;;;;;5033616;28;20026;-14
2022/07/09 12:35:20;;;;;;;2.20;1.23;;;37.40;26.10;;;;;;5033537;28;20097;-14
2022/07/09 12:37:46;;;;;;;1.85;1.10;;;37.90;25.70;;;;;;5033182;28;20026;-14
2022/07/09 12:40:12;;;;;;;2.42;1.42;;;38.40;24.60;;;;;;5033781;28;20393;-14
2022/07/09 12:42:39;;;;;;;2.08;1.20;;;38.60;24.20;;;;;;5033816;28;20062;-15
2022/07/09 12:45:06;;;;;;;2.60;1.20;;;38.10;24.60;;;;;;5033122;28;20087;-14
2022/07/09 12:47:32;;;;;;;4.07;1.52;;;37.70;25.20;;;;;;5032857;28;20026;-14